Переславль-Залесский

Карта отелей и гостиниц, располагающихся рядом с аэропортом Переславль-Залесский :

Переславль-Залесский Ярославская область 56° 41' 29.94" N, 38° 50' 34.8" E
Код аэродрома ИКАО
UUAE
Код аэродрома RU
УУАЕ
Координаты
N56.69165° E038.84300°
Превышение над уровнем моря
200
Основная полоса
15/33
Курс магнитный
144,8/324,8
Длина основной ВПП
20
Ширина основной ВПП
20
Покрытие основной ВПП
Твёрдое
Освещение ВПП
Нет
Тип: 
Вертодром
Класс аэродрома: 
Принадлежность: 
ГА
Статус: 
Действующий
Сайт: 
E-mail аэродрома: 
Страна: 
Россия
Регион: 
Ярославская область
Город: 
Дополнительная информация: 
Оператор: компрессорная станция.

Найти трансфер

С помощью этой формы Вы можете найти трансфер из аэропорта Переславль-Залесский в город, аэропорт или вокзал:

Карта места

Javascript is required to view this map.

Погода в аэропортах:

Авиационная погода в Ужгороде

Регион: 
Погода METAR: 
UKLU 261930Z 10004MPS 080V150 6000 -RA OVC016 06/06 Q0993 TEMPO 2100 -RA BR BKN005 BKN015
Время наблюдения
2021-11-26T19:30:00Z
Температура C
6.0
Точка росы
6.0
Направление ветра
100
Скорость ветра (узлы)
8
Метео видимость
3.73
Явления погоды
-RA
Условия полета
MVFR
Аэропорт подробнее: 

Авиационная погода в аэропорту Международный

Регион: 
Погода METAR: 
UKLL 281100Z 16002MPS 130V200 9000 -RA SCT011 OVC024 07/06 Q0997 TEMPO BKN007
Время наблюдения
2021-11-28T11:00:00Z
Температура C
7.0
Точка росы
6.0
Направление ветра
160
Скорость ветра (узлы)
4
Метео видимость
5.59
Явления погоды
-RA
Условия полета
MVFR
Аэропорт подробнее: 

Авиационная погода в Пулково

Регион: 
Погода METAR: 
ULLI 281300Z 04005MPS 3900 -SHSN SCT009 BKN018CB OVC036 M03/M04 Q1002 RESHSN R88/490535 NOSIG
Время наблюдения
2021-11-28T13:00:00Z
Температура C
-3.0
Точка росы
-4.0
Направление ветра
40
Скорость ветра (узлы)
10
Метео видимость
2.42
Явления погоды
-SHSN
Условия полета
IFR
Аэропорт подробнее: 

Авиационная погода в Борисполе

Регион: 
Погода METAR: 
UKBB 281300Z 12005MPS 0750 0500W R36R/1000D R36L/0900D PRFG OVC001 04/04 Q1003 TEMPO 0300 FG VV001
Время наблюдения
2021-11-28T13:00:00Z
Температура C
4.0
Точка росы
4.0
Направление ветра
120
Скорость ветра (узлы)
10
Метео видимость
0.47
Явления погоды
PRFG
Условия полета
LIFR
Аэропорт подробнее: